Stk-1004 — UBEM — position and weather

sailwx.info

Track history (hours):
 
Tides and Currents Weather Stations Pressure Air Temp Water Temp Dewpoint Dewpoint Depression Visibility Wind Speed Wind Dir Waves Ship Positions

Stk-1004

Last reported at 2016-Jun-30 18:33 UTC. Time now 2016-Jun-30 19:35 UTC.
Position N 59°56' E 030°17'.

Length 82 m; draft 2.4 m.

Type: Cargo ship. MMSI: 273439130.

Date/timePositionNaut miles runAvg speedWind from/ knotsBaromVisibWave heightAir tempDewpointWater temp
2016-Jun-30 18:33N 59°56' E 030°17'0 0.0
2016-Jun-30 17:33N 59°56' E 030°17'0 0.0
2016-Jun-30 16:33N 59°56' E 030°17'0 0.0
2016-Jun-30 15:33N 59°56' E 030°17'0 0.0
2016-Jun-30 14:33N 59°56' E 030°17'0 0.0
2016-Jun-30 13:33N 59°56' E 030°17'0 0.0
2016-Jun-30 12:33N 59°56' E 030°17'0 0.0
2016-Jun-30 11:33N 59°56' E 030°17'0 0.0
2016-Jun-30 10:33N 59°56' E 030°17'0 0.0
2016-Jun-30 09:33N 59°56' E 030°17'0 0.1
2016-Jun-30 08:33N 59°56' E 030°17'7 6.9
2016-Jun-30 07:33N 59°56' E 030°03'8 8.4
2016-Jun-30 06:33N 59°58' E 029°47'9 8.5
2016-Jun-30 05:32N 60°01' E 029°31'4 1.5
2016-Jun-30 03:08N 60°01' E 029°24'0 0.0
2016-Jun-30 02:33N 60°01' E 029°24'15 2.1
2016-Jun-29 19:30N 60°07' E 028°57'15 6.2
2016-Jun-29 17:09N 60°15' E 028°32'4 6.8
2016-Jun-29 16:33N 60°18' E 028°26'7 6.2
2016-Jun-29 15:28N 60°24' E 028°20'  
2016-Jun-27 01:21N 59°54' E 030°07'6 6.2
2016-Jun-27 00:23N 59°56' E 030°18'3 3.5
2016-Jun-26 23:33N 59°56' E 030°24'0 0.3
2016-Jun-26 22:27N 59°55' E 030°24'0 0.0
2016-Jun-26 21:33N 59°55' E 030°24'0 0.0
2016-Jun-26 20:31N 59°55' E 030°24'0 0.0
2016-Jun-26 17:32N 59°55' E 030°24'0 0.0
2016-Jun-26 15:19N 59°55' E 030°24'0 0.0
2016-Jun-26 11:28N 59°55' E 030°24'0 0.0
2016-Jun-26 10:33N 59°55' E 030°24'0 0.0
2016-Jun-26 09:31N 59°55' E 030°24'0 0.0
2016-Jun-26 08:33N 59°55' E 030°24'0 0.0
2016-Jun-26 07:28N 59°55' E 030°24'0 0.0
2016-Jun-26 06:09N 59°55' E 030°24'0 0.0
2016-Jun-26 05:33N 59°55' E 030°24'0 0.0
2016-Jun-26 04:28N 59°55' E 030°24'0 0.0
2016-Jun-26 03:30N 59°55' E 030°24'0 0.0
2016-Jun-26 02:33N 59°55' E 030°24'0 0.0
2016-Jun-26 01:28N 59°55' E 030°24'0 0.0
2016-Jun-26 00:24N 59°55' E 030°24'0 0.0
2016-Jun-25 23:32N 59°55' E 030°24'0 0.0
2016-Jun-25 22:26N 59°55' E 030°24'0 0.0
2016-Jun-25 21:31N 59°55' E 030°24'0 0.0
2016-Jun-25 20:32N 59°55' E 030°24'0 0.0
2016-Jun-25 19:31N 59°55' E 030°24'0 0.0
2016-Jun-25 18:32N 59°55' E 030°24'0 0.0
2016-Jun-25 17:32N 59°55' E 030°24'0 0.0
2016-Jun-25 16:33N 59°55' E 030°24'4 3.9
2016-Jun-25 15:33N 59°52' E 030°28'  
Track history (hours):
 
Tides and Currents Weather Stations Pressure Air Temp Water Temp Dewpoint Dewpoint Depression Visibility Wind Speed Wind Dir Waves Ship Positions

Stk-1004

Last reported at 2016-Jun-30 18:33 UTC. Time now 2016-Jun-30 19:35 UTC.
Position N 59°56' E 030°17'.

Length 82 m; draft 2.4 m.

Type: Cargo ship. MMSI: 273439130.

Date/timePositionNaut miles runAvg speedWind from/ knotsBaromVisibWave heightAir tempDewpointWater temp
2016-Jun-30 18:33N 59°56' E 030°17'0 0.0
2016-Jun-30 17:33N 59°56' E 030°17'0 0.0
2016-Jun-30 16:33N 59°56' E 030°17'0 0.0
2016-Jun-30 15:33N 59°56' E 030°17'0 0.0
2016-Jun-30 14:33N 59°56' E 030°17'0 0.0
2016-Jun-30 13:33N 59°56' E 030°17'0 0.0
2016-Jun-30 12:33N 59°56' E 030°17'0 0.0
2016-Jun-30 11:33N 59°56' E 030°17'0 0.0
2016-Jun-30 10:33N 59°56' E 030°17'0 0.0
2016-Jun-30 09:33N 59°56' E 030°17'0 0.1
2016-Jun-30 08:33N 59°56' E 030°17'7 6.9
2016-Jun-30 07:33N 59°56' E 030°03'8 8.4
2016-Jun-30 06:33N 59°58' E 029°47'9 8.5
2016-Jun-30 05:32N 60°01' E 029°31'4 1.5
2016-Jun-30 03:08N 60°01' E 029°24'0 0.0
2016-Jun-30 02:33N 60°01' E 029°24'15 2.1
2016-Jun-29 19:30N 60°07' E 028°57'15 6.2
2016-Jun-29 17:09N 60°15' E 028°32'4 6.8
2016-Jun-29 16:33N 60°18' E 028°26'7 6.2
2016-Jun-29 15:28N 60°24' E 028°20'  
2016-Jun-27 01:21N 59°54' E 030°07'6 6.2
2016-Jun-27 00:23N 59°56' E 030°18'3 3.5
2016-Jun-26 23:33N 59°56' E 030°24'0 0.3
2016-Jun-26 22:27N 59°55' E 030°24'0 0.0
2016-Jun-26 21:33N 59°55' E 030°24'0 0.0
2016-Jun-26 20:31N 59°55' E 030°24'0 0.0
2016-Jun-26 17:32N 59°55' E 030°24'0 0.0
2016-Jun-26 15:19N 59°55' E 030°24'0 0.0
2016-Jun-26 11:28N 59°55' E 030°24'0 0.0
2016-Jun-26 10:33N 59°55' E 030°24'0 0.0
2016-Jun-26 09:31N 59°55' E 030°24'0 0.0
2016-Jun-26 08:33N 59°55' E 030°24'0 0.0
2016-Jun-26 07:28N 59°55' E 030°24'0 0.0
2016-Jun-26 06:09N 59°55' E 030°24'0 0.0
2016-Jun-26 05:33N 59°55' E 030°24'0 0.0
2016-Jun-26 04:28N 59°55' E 030°24'0 0.0
2016-Jun-26 03:30N 59°55' E 030°24'0 0.0
2016-Jun-26 02:33N 59°55' E 030°24'0 0.0
2016-Jun-26 01:28N 59°55' E 030°24'0 0.0
2016-Jun-26 00:24N 59°55' E 030°24'0 0.0
2016-Jun-25 23:32N 59°55' E 030°24'0 0.0
2016-Jun-25 22:26N 59°55' E 030°24'0 0.0
2016-Jun-25 21:31N 59°55' E 030°24'0 0.0
2016-Jun-25 20:32N 59°55' E 030°24'0 0.0
2016-Jun-25 19:31N 59°55' E 030°24'0 0.0
2016-Jun-25 18:32N 59°55' E 030°24'0 0.0
2016-Jun-25 17:32N 59°55' E 030°24'0 0.0
2016-Jun-25 16:33N 59°55' E 030°24'4 3.9
2016-Jun-25 15:33N 59°52' E 030°28'  

Dump ship's entire track history